sensor_id;sensor_type;location;lat;lon;timestamp;pressure;altitude;pressure_sealevel;temperature;humidity
59063;BME280;44851;45.648;9.004;2022-10-17T00:02:07;100076.56;;;16.09;67.09
59063;BME280;44851;45.648;9.004;2022-10-17T00:04:32;100078.31;;;16.19;67.05
59063;BME280;44851;45.648;9.004;2022-10-17T00:06:57;100073.94;;;16.09;66.81
59063;BME280;44851;45.648;9.004;2022-10-17T00:09:23;100080.81;;;16.20;67.09
59063;BME280;44851;45.648;9.004;2022-10-17T00:11:48;100083.56;;;16.19;66.72
59063;BME280;44851;45.648;9.004;2022-10-17T00:14:13;100077.78;;;16.15;66.36
59063;BME280;44851;45.648;9.004;2022-10-17T00:16:39;100088.28;;;16.15;66.18
59063;BME280;44851;45.648;9.004;2022-10-17T00:19:05;100083.47;;;16.11;66.37
59063;BME280;44851;45.648;9.004;2022-10-17T00:21:31;100089.81;;;16.18;66.22
59063;BME280;44851;45.648;9.004;2022-10-17T00:23:58;100089.44;;;16.03;66.82
59063;BME280;44851;45.648;9.004;2022-10-17T00:26:25;100090.09;;;15.87;67.14
59063;BME280;44851;45.648;9.004;2022-10-17T00:28:51;100094.19;;;15.99;66.77
59063;BME280;44851;45.648;9.004;2022-10-17T00:31:18;100100.72;;;15.95;66.84
59063;BME280;44851;45.648;9.004;2022-10-17T00:33:44;100101.94;;;16.01;67.19
59063;BME280;44851;45.648;9.004;2022-10-17T00:36:18;100093.75;;;16.04;66.58
59063;BME280;44851;45.648;9.004;2022-10-17T00:38:45;100107.25;;;15.91;67.09
59063;BME280;44851;45.648;9.004;2022-10-17T00:41:14;100102.53;;;15.95;66.59
59063;BME280;44851;45.648;9.004;2022-10-17T00:46:42;100109.25;;;15.79;67.29
59063;BME280;44851;45.648;9.004;2022-10-17T00:49:10;100109.19;;;15.89;66.95
59063;BME280;44851;45.648;9.004;2022-10-17T00:51:56;100109.78;;;15.83;65.55
59063;BME280;44851;45.648;9.004;2022-10-17T00:54:25;100111.28;;;15.86;66.90
59063;BME280;44851;45.648;9.004;2022-10-17T00:56:52;100112.41;;;15.83;67.09
59063;BME280;44851;45.648;9.004;2022-10-17T00:59:19;100110.88;;;15.80;66.72
59063;BME280;44851;45.648;9.004;2022-10-17T01:02:04;100107.88;;;15.75;65.66
59063;BME280;44851;45.648;9.004;2022-10-17T01:04:30;100111.44;;;15.84;67.44
59063;BME280;44851;45.648;9.004;2022-10-17T01:06:56;100119.53;;;15.73;67.45
59063;BME280;44851;45.648;9.004;2022-10-17T01:09:22;100114.50;;;15.79;67.04
59063;BME280;44851;45.648;9.004;2022-10-17T01:20:46;100113.13;;;15.75;65.94
59063;BME280;44851;45.648;9.004;2022-10-17T01:29:31;100116.97;;;15.81;67.37
59063;BME280;44851;45.648;9.004;2022-10-17T01:32:04;100113.88;;;15.68;66.98
59063;BME280;44851;45.648;9.004;2022-10-17T01:40:03;100107.47;;;15.70;66.10
59063;BME280;44851;45.648;9.004;2022-10-17T01:42:37;100104.38;;;15.57;67.20
59063;BME280;44851;45.648;9.004;2022-10-17T01:45:20;100103.03;;;15.43;66.27
59063;BME280;44851;45.648;9.004;2022-10-17T01:47:49;100095.53;;;15.48;67.35
59063;BME280;44851;45.648;9.004;2022-10-17T01:50:31;100095.84;;;15.45;66.68
59063;BME280;44851;45.648;9.004;2022-10-17T01:53:02;100096.13;;;15.42;67.57
59063;BME280;44851;45.648;9.004;2022-10-17T01:55:34;100089.19;;;15.51;67.41
59063;BME280;44851;45.648;9.004;2022-10-17T01:58:05;100096.44;;;15.29;67.71
59063;BME280;44851;45.648;9.004;2022-10-17T02:00:33;100094.34;;;15.33;67.85
59063;BME280;44851;45.648;9.004;2022-10-17T02:03:03;100091.72;;;15.33;67.65
59063;BME280;44851;45.648;9.004;2022-10-17T02:05:34;100101.41;;;15.23;67.69
59063;BME280;44851;45.648;9.004;2022-10-17T02:08:00;100104.75;;;15.25;68.47
59063;BME280;44851;45.648;9.004;2022-10-17T02:21:40;100098.94;;;15.02;66.66
59063;BME280;44851;45.648;9.004;2022-10-17T02:24:12;100107.63;;;15.22;68.09
59063;BME280;44851;45.648;9.004;2022-10-17T02:29:48;100108.88;;;15.18;67.25
59063;BME280;44851;45.648;9.004;2022-10-17T02:32:24;100111.63;;;15.16;67.31
59063;BME280;44851;45.648;9.004;2022-10-17T02:34:54;100114.81;;;15.20;67.31
59063;BME280;44851;45.648;9.004;2022-10-17T02:37:26;100110.25;;;15.22;67.90
59063;BME280;44851;45.648;9.004;2022-10-17T02:39:53;100119.09;;;15.21;68.57
59063;BME280;44851;45.648;9.004;2022-10-17T02:42:21;100105.31;;;14.99;68.53
59063;BME280;44851;45.648;9.004;2022-10-17T02:44:49;100105.84;;;15.13;68.60
59063;BME280;44851;45.648;9.004;2022-10-17T02:47:26;100105.28;;;15.19;67.13
59063;BME280;44851;45.648;9.004;2022-10-17T02:49:54;100105.00;;;15.22;68.20
59063;BME280;44851;45.648;9.004;2022-10-17T02:52:31;100113.59;;;15.24;67.60
59063;BME280;44851;45.648;9.004;2022-10-17T02:55:16;100113.84;;;15.21;67.33
59063;BME280;44851;45.648;9.004;2022-10-17T02:57:49;100116.63;;;15.10;67.81
59063;BME280;44851;45.648;9.004;2022-10-17T03:00:17;100115.81;;;14.99;68.76
59063;BME280;44851;45.648;9.004;2022-10-17T03:02:46;100116.34;;;15.13;68.07
59063;BME280;44851;45.648;9.004;2022-10-17T03:05:15;100119.94;;;15.02;68.85
59063;BME280;44851;45.648;9.004;2022-10-17T03:07:40;100124.13;;;14.95;68.85
59063;BME280;44851;45.648;9.004;2022-10-17T03:10:06;100118.72;;;14.96;68.73
59063;BME280;44851;45.648;9.004;2022-10-17T03:12:31;100118.88;;;14.85;69.31
59063;BME280;44851;45.648;9.004;2022-10-17T03:14:57;100125.22;;;14.92;69.22
59063;BME280;44851;45.648;9.004;2022-10-17T03:17:22;100131.84;;;14.96;69.42
59063;BME280;44851;45.648;9.004;2022-10-17T03:19:47;100128.81;;;14.91;69.03
59063;BME280;44851;45.648;9.004;2022-10-17T03:22:13;100129.94;;;14.98;69.09
59063;BME280;44851;45.648;9.004;2022-10-17T03:24:38;100136.25;;;15.05;68.89
59063;BME280;44851;45.648;9.004;2022-10-17T03:27:03;100137.91;;;15.07;68.89
59063;BME280;44851;45.648;9.004;2022-10-17T03:29:29;100130.47;;;14.92;69.36
59063;BME280;44851;45.648;9.004;2022-10-17T03:31:54;100133.53;;;14.97;68.54
59063;BME280;44851;45.648;9.004;2022-10-17T03:34:19;100127.72;;;14.84;69.69
59063;BME280;44851;45.648;9.004;2022-10-17T03:36:45;100132.41;;;14.90;69.53
59063;BME280;44851;45.648;9.004;2022-10-17T03:39:10;100134.50;;;14.77;68.78
59063;BME280;44851;45.648;9.004;2022-10-17T03:41:36;100130.50;;;14.83;69.57
59063;BME280;44851;45.648;9.004;2022-10-17T03:44:01;100141.41;;;14.78;69.63
59063;BME280;44851;45.648;9.004;2022-10-17T03:46:27;100146.50;;;14.89;69.56
59063;BME280;44851;45.648;9.004;2022-10-17T03:48:52;100148.44;;;14.87;68.99
59063;BME280;44851;45.648;9.004;2022-10-17T03:51:18;100147.06;;;14.83;69.67
59063;BME280;44851;45.648;9.004;2022-10-17T03:53:43;100145.00;;;14.77;69.07
59063;BME280;44851;45.648;9.004;2022-10-17T03:56:12;100145.25;;;14.74;69.43
59063;BME280;44851;45.648;9.004;2022-10-17T03:58:39;100148.84;;;14.73;69.39
59063;BME280;44851;45.648;9.004;2022-10-17T04:01:10;100148.28;;;14.79;69.17
59063;BME280;44851;45.648;9.004;2022-10-17T04:03:36;100153.94;;;14.65;69.47
59063;BME280;44851;45.648;9.004;2022-10-17T04:06:02;100158.38;;;14.74;69.54
59063;BME280;44851;45.648;9.004;2022-10-17T04:08:28;100157.53;;;14.64;70.13
59063;BME280;44851;45.648;9.004;2022-10-17T04:10:58;100155.88;;;14.63;69.93
59063;BME280;44851;45.648;9.004;2022-10-17T04:13:23;100162.41;;;14.78;69.72
59063;BME280;44851;45.648;9.004;2022-10-17T04:16:00;100166.09;;;14.75;68.17
59063;BME280;44851;45.648;9.004;2022-10-17T04:18:26;100160.59;;;14.69;69.67
59063;BME280;44851;45.648;9.004;2022-10-17T04:20:52;100171.66;;;14.72;70.01
59063;BME280;44851;45.648;9.004;2022-10-17T04:23:18;100169.84;;;14.73;70.04
59063;BME280;44851;45.648;9.004;2022-10-17T04:25:43;100166.97;;;14.76;70.36
59063;BME280;44851;45.648;9.004;2022-10-17T04:28:09;100171.78;;;14.81;69.77
59063;BME280;44851;45.648;9.004;2022-10-17T04:30:34;100173.31;;;14.73;69.92
59063;BME280;44851;45.648;9.004;2022-10-17T04:33:00;100170.09;;;14.70;70.26
59063;BME280;44851;45.648;9.004;2022-10-17T04:35:25;100176.06;;;14.62;70.52
59063;BME280;44851;45.648;9.004;2022-10-17T04:37:51;100175.94;;;14.73;70.10
59063;BME280;44851;45.648;9.004;2022-10-17T04:40:16;100175.34;;;14.70;70.08
59063;BME280;44851;45.648;9.004;2022-10-17T04:42:42;100185.75;;;14.81;69.95
59063;BME280;44851;45.648;9.004;2022-10-17T04:45:07;100184.34;;;14.67;69.90
59063;BME280;44851;45.648;9.004;2022-10-17T04:47:33;100184.34;;;14.58;69.80
59063;BME280;44851;45.648;9.004;2022-10-17T04:49:58;100184.78;;;14.72;70.01
59063;BME280;44851;45.648;9.004;2022-10-17T04:52:24;100192.06;;;14.69;69.77
59063;BME280;44851;45.648;9.004;2022-10-17T04:54:50;100192.34;;;14.75;69.79
59063;BME280;44851;45.648;9.004;2022-10-17T04:57:15;100191.63;;;14.54;70.04
59063;BME280;44851;45.648;9.004;2022-10-17T04:59:41;100187.94;;;14.57;70.65
59063;BME280;44851;45.648;9.004;2022-10-17T05:02:06;100192.91;;;14.50;71.06
59063;BME280;44851;45.648;9.004;2022-10-17T05:04:31;100189.88;;;14.55;70.81
59063;BME280;44851;45.648;9.004;2022-10-17T05:06:57;100193.59;;;14.62;70.15
59063;BME280;44851;45.648;9.004;2022-10-17T05:09:22;100198.69;;;14.53;70.58
59063;BME280;44851;45.648;9.004;2022-10-17T05:11:47;100198.13;;;14.60;70.37
59063;BME280;44851;45.648;9.004;2022-10-17T05:14:14;100201.44;;;14.52;70.32
59063;BME280;44851;45.648;9.004;2022-10-17T05:16:39;100205.19;;;14.49;70.33
59063;BME280;44851;45.648;9.004;2022-10-17T05:19:04;100209.19;;;14.44;70.56
59063;BME280;44851;45.648;9.004;2022-10-17T05:21:30;100210.84;;;14.55;70.57
59063;BME280;44851;45.648;9.004;2022-10-17T05:23:56;100208.50;;;14.51;70.94
59063;BME280;44851;45.648;9.004;2022-10-17T05:26:24;100215.81;;;14.58;70.91
59063;BME280;44851;45.648;9.004;2022-10-17T05:28:50;100213.63;;;14.63;70.74
59063;BME280;44851;45.648;9.004;2022-10-17T05:31:19;100213.88;;;14.50;70.38
59063;BME280;44851;45.648;9.004;2022-10-17T05:33:44;100211.66;;;14.45;70.59
59063;BME280;44851;45.648;9.004;2022-10-17T05:36:09;100214.28;;;14.45;70.28
59063;BME280;44851;45.648;9.004;2022-10-17T05:38:35;100212.19;;;14.39;70.55
59063;BME280;44851;45.648;9.004;2022-10-17T05:41:04;100218.28;;;14.40;70.41
59063;BME280;44851;45.648;9.004;2022-10-17T05:43:30;100215.75;;;14.38;70.93
59063;BME280;44851;45.648;9.004;2022-10-17T05:45:56;100211.94;;;14.52;70.74
59063;BME280;44851;45.648;9.004;2022-10-17T05:48:22;100216.03;;;14.35;70.84
59063;BME280;44851;45.648;9.004;2022-10-17T05:50:48;100220.75;;;14.41;70.65
59063;BME280;44851;45.648;9.004;2022-10-17T05:53:14;100227.00;;;14.50;70.54
59063;BME280;44851;45.648;9.004;2022-10-17T05:55:40;100231.81;;;14.45;70.92
59063;BME280;44851;45.648;9.004;2022-10-17T05:58:05;100230.28;;;14.42;70.56
59063;BME280;44851;45.648;9.004;2022-10-17T06:00:31;100228.47;;;14.33;70.67
59063;BME280;44851;45.648;9.004;2022-10-17T06:02:56;100237.03;;;14.35;71.08
59063;BME280;44851;45.648;9.004;2022-10-17T06:05:22;100236.41;;;14.22;70.71
59063;BME280;44851;45.648;9.004;2022-10-17T06:07:47;100237.56;;;14.29;71.53
59063;BME280;44851;45.648;9.004;2022-10-17T06:10:19;100242.28;;;14.35;71.65
59063;BME280;44851;45.648;9.004;2022-10-17T06:12:44;100239.53;;;14.46;70.69
59063;BME280;44851;45.648;9.004;2022-10-17T06:15:11;100247.53;;;14.35;72.23
59063;BME280;44851;45.648;9.004;2022-10-17T06:17:36;100255.28;;;14.46;71.53
59063;BME280;44851;45.648;9.004;2022-10-17T06:20:02;100251.69;;;14.47;72.01
59063;BME280;44851;45.648;9.004;2022-10-17T06:22:28;100264.00;;;14.57;71.47
59063;BME280;44851;45.648;9.004;2022-10-17T06:24:53;100259.66;;;14.36;71.92
59063;BME280;44851;45.648;9.004;2022-10-17T06:27:19;100262.47;;;14.44;71.80
59063;BME280;44851;45.648;9.004;2022-10-17T06:29:45;100255.81;;;14.40;72.27
59063;BME280;44851;45.648;9.004;2022-10-17T06:32:11;100266.88;;;14.53;72.09
59063;BME280;44851;45.648;9.004;2022-10-17T06:34:36;100265.34;;;14.41;72.02
59063;BME280;44851;45.648;9.004;2022-10-17T06:37:01;100270.47;;;14.52;72.59
59063;BME280;44851;45.648;9.004;2022-10-17T06:39:26;100276.84;;;14.50;72.38
59063;BME280;44851;45.648;9.004;2022-10-17T06:41:58;100280.44;;;14.59;72.76
59063;BME280;44851;45.648;9.004;2022-10-17T06:44:24;100290.81;;;14.70;72.60
59063;BME280;44851;45.648;9.004;2022-10-17T06:46:52;100282.44;;;14.86;72.53
59063;BME280;44851;45.648;9.004;2022-10-17T06:49:17;100282.59;;;14.84;72.67
59063;BME280;44851;45.648;9.004;2022-10-17T06:51:43;100279.16;;;14.93;72.33
59063;BME280;44851;45.648;9.004;2022-10-17T06:54:08;100285.50;;;14.81;72.31
59063;BME280;44851;45.648;9.004;2022-10-17T06:56:33;100291.84;;;14.88;72.51
59063;BME280;44851;45.648;9.004;2022-10-17T06:58:59;100297.66;;;15.01;73.01
59063;BME280;44851;45.648;9.004;2022-10-17T07:01:24;100297.13;;;14.98;72.77
59063;BME280;44851;45.648;9.004;2022-10-17T07:03:50;100294.50;;;15.08;72.21
59063;BME280;44851;45.648;9.004;2022-10-17T07:06:16;100296.59;;;15.14;72.72
59063;BME280;44851;45.648;9.004;2022-10-17T07:08:43;100299.06;;;15.15;72.49
59063;BME280;44851;45.648;9.004;2022-10-17T07:11:14;100302.56;;;15.25;72.46
59063;BME280;44851;45.648;9.004;2022-10-17T07:13:39;100309.63;;;15.25;71.84
59063;BME280;44851;45.648;9.004;2022-10-17T07:16:05;100304.06;;;15.28;73.05
59063;BME280;44851;45.648;9.004;2022-10-17T07:18:31;100309.59;;;15.44;72.80
59063;BME280;44851;45.648;9.004;2022-10-17T07:20:56;100319.03;;;15.37;72.97
59063;BME280;44851;45.648;9.004;2022-10-17T07:23:22;100319.28;;;15.44;72.41
59063;BME280;44851;45.648;9.004;2022-10-17T07:25:47;100321.66;;;15.47;72.83
59063;BME280;44851;45.648;9.004;2022-10-17T07:28:13;100321.25;;;15.51;73.20
59063;BME280;44851;45.648;9.004;2022-10-17T07:30:39;100318.16;;;15.66;73.05
59063;BME280;44851;45.648;9.004;2022-10-17T07:33:04;100324.00;;;15.69;72.71
59063;BME280;44851;45.648;9.004;2022-10-17T07:35:30;100321.38;;;15.69;72.66
59063;BME280;44851;45.648;9.004;2022-10-17T07:37:55;100320.69;;;15.77;73.38
59063;BME280;44851;45.648;9.004;2022-10-17T07:40:20;100325.63;;;15.90;71.43
59063;BME280;44851;45.648;9.004;2022-10-17T07:42:45;100330.72;;;16.01;72.59
59063;BME280;44851;45.648;9.004;2022-10-17T07:45:11;100326.13;;;16.13;71.83
59063;BME280;44851;45.648;9.004;2022-10-17T07:47:36;100328.59;;;16.24;72.20
59063;BME280;44851;45.648;9.004;2022-10-17T07:50:04;100338.28;;;16.33;71.29
59063;BME280;44851;45.648;9.004;2022-10-17T07:52:29;100333.34;;;16.57;71.05
59063;BME280;44851;45.648;9.004;2022-10-17T07:54:55;100340.22;;;16.68;70.81
59063;BME280;44851;45.648;9.004;2022-10-17T07:57:20;100338.69;;;16.93;71.85
59063;BME280;44851;45.648;9.004;2022-10-17T07:59:46;100342.63;;;17.17;70.53
59063;BME280;44851;45.648;9.004;2022-10-17T08:02:23;100341.41;;;17.29;68.58
59063;BME280;44851;45.648;9.004;2022-10-17T08:04:49;100350.88;;;17.57;68.19
59063;BME280;44851;45.648;9.004;2022-10-17T08:07:15;100349.00;;;17.68;67.62
59063;BME280;44851;45.648;9.004;2022-10-17T08:09:41;100345.53;;;17.85;67.71
59063;BME280;44851;45.648;9.004;2022-10-17T08:12:06;100349.63;;;18.05;67.82
59063;BME280;44851;45.648;9.004;2022-10-17T08:14:32;100345.50;;;18.29;67.83
59063;BME280;44851;45.648;9.004;2022-10-17T08:16:57;100353.69;;;18.43;66.16
59063;BME280;44851;45.648;9.004;2022-10-17T08:19:22;100347.59;;;18.51;66.20
59063;BME280;44851;45.648;9.004;2022-10-17T08:21:48;100352.06;;;18.85;67.26
59063;BME280;44851;45.648;9.004;2022-10-17T08:24:14;100344.47;;;18.90;66.17
59063;BME280;44851;45.648;9.004;2022-10-17T08:26:40;100349.81;;;18.98;64.59
59063;BME280;44851;45.648;9.004;2022-10-17T08:29:05;100354.78;;;19.09;64.41
59063;BME280;44851;45.648;9.004;2022-10-17T08:31:31;100353.81;;;19.18;62.97
59063;BME280;44851;45.648;9.004;2022-10-17T08:33:56;100347.19;;;19.14;62.01
59063;BME280;44851;45.648;9.004;2022-10-17T08:36:22;100347.19;;;19.23;62.13
59063;BME280;44851;45.648;9.004;2022-10-17T08:38:47;100354.84;;;19.42;62.75
59063;BME280;44851;45.648;9.004;2022-10-17T08:44:01;100350.53;;;19.49;60.89
59063;BME280;44851;45.648;9.004;2022-10-17T08:46:36;100346.97;;;19.66;60.53
59063;BME280;44851;45.648;9.004;2022-10-17T08:49:08;100350.94;;;19.79;62.69
59063;BME280;44851;45.648;9.004;2022-10-17T08:51:43;100357.88;;;19.88;61.10
59063;BME280;44851;45.648;9.004;2022-10-17T08:56:48;100352.53;;;20.12;59.60
59063;BME280;44851;45.648;9.004;2022-10-17T08:59:26;100353.03;;;20.16;60.69
59063;BME280;44851;45.648;9.004;2022-10-17T09:02:10;100351.72;;;20.12;59.60
59063;BME280;44851;45.648;9.004;2022-10-17T09:08:16;100359.78;;;20.43;59.71
59063;BME280;44851;45.648;9.004;2022-10-17T09:13:31;100360.69;;;20.66;57.84
59063;BME280;44851;45.648;9.004;2022-10-17T09:19:00;100362.94;;;20.77;57.76
59063;BME280;44851;45.648;9.004;2022-10-17T09:22:20;100357.63;;;20.86;57.46
59063;BME280;44851;45.648;9.004;2022-10-17T09:24:50;100365.50;;;21.02;57.85
59063;BME280;44851;45.648;9.004;2022-10-17T09:27:27;100355.84;;;21.09;57.51
59063;BME280;44851;45.648;9.004;2022-10-17T09:32:37;100359.19;;;21.34;56.82
59063;BME280;44851;45.648;9.004;2022-10-17T09:35:02;100354.00;;;21.41;57.24
59063;BME280;44851;45.648;9.004;2022-10-17T09:37:30;100361.91;;;21.49;56.39
59063;BME280;44851;45.648;9.004;2022-10-17T09:39:56;100360.91;;;21.50;55.07
59063;BME280;44851;45.648;9.004;2022-10-17T09:42:25;100353.47;;;21.22;55.23
59063;BME280;44851;45.648;9.004;2022-10-17T09:47:39;100353.88;;;21.80;55.76
59063;BME280;44851;45.648;9.004;2022-10-17T09:50:29;100350.00;;;21.91;53.33
59063;BME280;44851;45.648;9.004;2022-10-17T09:52:58;100351.03;;;22.04;55.91
59063;BME280;44851;45.648;9.004;2022-10-17T09:58:00;100349.22;;;22.20;54.44
59063;BME280;44851;45.648;9.004;2022-10-17T10:00:32;100351.84;;;22.05;53.67
59063;BME280;44851;45.648;9.004;2022-10-17T10:03:30;100355.06;;;22.00;54.19
59063;BME280;44851;45.648;9.004;2022-10-17T10:06:31;100348.38;;;22.19;55.22
59063;BME280;44851;45.648;9.004;2022-10-17T10:08:54;100350.03;;;22.20;53.49
59063;BME280;44851;45.648;9.004;2022-10-17T10:11:54;100345.19;;;22.24;52.30
59063;BME280;44851;45.648;9.004;2022-10-17T10:14:22;100347.31;;;22.43;53.89
59063;BME280;44851;45.648;9.004;2022-10-17T10:16:49;100346.56;;;22.35;52.98
59063;BME280;44851;45.648;9.004;2022-10-17T10:19:20;100347.56;;;22.33;53.19
59063;BME280;44851;45.648;9.004;2022-10-17T10:21:59;100349.66;;;22.53;53.75
59063;BME280;44851;45.648;9.004;2022-10-17T10:24:25;100354.25;;;22.29;52.78
59063;BME280;44851;45.648;9.004;2022-10-17T10:26:53;100360.78;;;22.56;53.45
59063;BME280;44851;45.648;9.004;2022-10-17T10:31:56;100356.53;;;22.47;51.55
59063;BME280;44851;45.648;9.004;2022-10-17T10:34:28;100359.75;;;22.72;53.45
59063;BME280;44851;45.648;9.004;2022-10-17T10:36:58;100352.72;;;23.01;51.97
59063;BME280;44851;45.648;9.004;2022-10-17T10:39:35;100350.66;;;23.32;54.83
59063;BME280;44851;45.648;9.004;2022-10-17T10:42:03;100348.34;;;23.08;51.22
59063;BME280;44851;45.648;9.004;2022-10-17T10:44:31;100353.44;;;23.24;51.13
59063;BME280;44851;45.648;9.004;2022-10-17T10:47:29;100352.31;;;22.97;50.60
59063;BME280;44851;45.648;9.004;2022-10-17T10:50:24;100339.28;;;23.24;50.07
59063;BME280;44851;45.648;9.004;2022-10-17T10:53:46;100336.25;;;23.27;50.43
59063;BME280;44851;45.648;9.004;2022-10-17T10:55:52;100339.47;;;23.22;50.01
59063;BME280;44851;45.648;9.004;2022-10-17T10:58:26;100350.56;;;22.90;49.01
59063;BME280;44851;45.648;9.004;2022-10-17T11:00:55;100342.88;;;23.16;50.45
59063;BME280;44851;45.648;9.004;2022-10-17T11:03:30;100340.50;;;23.43;49.97
59063;BME280;44851;45.648;9.004;2022-10-17T11:06:18;100340.16;;;23.46;49.49
59063;BME280;44851;45.648;9.004;2022-10-17T11:09:04;100337.59;;;23.38;49.16
59063;BME280;44851;45.648;9.004;2022-10-17T11:11:35;100338.00;;;23.56;48.61
59063;BME280;44851;45.648;9.004;2022-10-17T11:14:15;100332.38;;;23.72;49.38
59063;BME280;44851;45.648;9.004;2022-10-17T11:16:56;100329.50;;;23.46;48.73
59063;BME280;44851;45.648;9.004;2022-10-17T11:19:36;100332.88;;;23.82;49.68
59063;BME280;44851;45.648;9.004;2022-10-17T11:22:14;100337.56;;;23.80;48.72
59063;BME280;44851;45.648;9.004;2022-10-17T11:24:55;100336.06;;;23.71;48.51
59063;BME280;44851;45.648;9.004;2022-10-17T11:27:25;100319.31;;;23.77;47.94
59063;BME280;44851;45.648;9.004;2022-10-17T11:29:52;100326.03;;;23.95;49.03
59063;BME280;44851;45.648;9.004;2022-10-17T11:32:28;100325.41;;;23.93;47.80
59063;BME280;44851;45.648;9.004;2022-10-17T11:35:06;100321.38;;;24.03;48.50
59063;BME280;44851;45.648;9.004;2022-10-17T11:37:39;100320.94;;;24.00;48.18
59063;BME280;44851;45.648;9.004;2022-10-17T11:40:18;100321.44;;;24.17;47.72
59063;BME280;44851;45.648;9.004;2022-10-17T11:45:19;100311.22;;;24.13;48.19
59063;BME280;44851;45.648;9.004;2022-10-17T11:47:50;100306.56;;;23.94;47.90
59063;BME280;44851;45.648;9.004;2022-10-17T11:53:15;100307.81;;;23.27;49.38
59063;BME280;44851;45.648;9.004;2022-10-17T11:55:42;100304.72;;;23.45;48.67
59063;BME280;44851;45.648;9.004;2022-10-17T11:58:37;100307.44;;;23.52;48.46
59063;BME280;44851;45.648;9.004;2022-10-17T12:01:11;100298.00;;;23.99;49.05
59063;BME280;44851;45.648;9.004;2022-10-17T12:12:00;100291.00;;;24.32;47.56
59063;BME280;44851;45.648;9.004;2022-10-17T12:16:58;100285.31;;;24.07;46.63
59063;BME280;44851;45.648;9.004;2022-10-17T12:19:26;100284.50;;;24.07;47.01
59063;BME280;44851;45.648;9.004;2022-10-17T12:24:32;100278.47;;;24.26;47.91
59063;BME280;44851;45.648;9.004;2022-10-17T12:32:36;100267.22;;;24.31;46.92
59063;BME280;44851;45.648;9.004;2022-10-17T12:35:03;100272.31;;;24.19;47.23
59063;BME280;44851;45.648;9.004;2022-10-17T12:53:57;100260.78;;;24.12;46.36
59063;BME280;44851;45.648;9.004;2022-10-17T12:56:39;100254.53;;;24.39;47.26
59063;BME280;44851;45.648;9.004;2022-10-17T12:59:13;100259.50;;;24.08;46.32
59063;BME280;44851;45.648;9.004;2022-10-17T13:01:44;100254.97;;;24.02;46.42
59063;BME280;44851;45.648;9.004;2022-10-17T13:04:10;100253.34;;;24.01;46.78
59063;BME280;44851;45.648;9.004;2022-10-17T13:06:42;100243.84;;;23.92;46.00
59063;BME280;44851;45.648;9.004;2022-10-17T13:09:34;100248.47;;;24.11;45.97
59063;BME280;44851;45.648;9.004;2022-10-17T13:12:03;100245.81;;;24.11;46.92
59063;BME280;44851;45.648;9.004;2022-10-17T13:14:31;100241.84;;;23.94;46.05
59063;BME280;44851;45.648;9.004;2022-10-17T13:17:03;100236.44;;;23.87;47.37
59063;BME280;44851;45.648;9.004;2022-10-17T13:19:40;100236.03;;;23.90;47.82
59063;BME280;44851;45.648;9.004;2022-10-17T13:22:14;100233.91;;;23.79;47.36
59063;BME280;44851;45.648;9.004;2022-10-17T13:24:40;100228.94;;;23.69;48.19
59063;BME280;44851;45.648;9.004;2022-10-17T13:29:48;100231.81;;;23.68;47.36
59063;BME280;44851;45.648;9.004;2022-10-17T13:32:13;100228.03;;;23.55;47.87
59063;BME280;44851;45.648;9.004;2022-10-17T13:34:39;100224.81;;;23.60;47.47
59063;BME280;44851;45.648;9.004;2022-10-17T13:37:09;100223.13;;;23.59;47.76
59063;BME280;44851;45.648;9.004;2022-10-17T13:39:42;100222.34;;;23.65;46.40
59063;BME280;44851;45.648;9.004;2022-10-17T13:42:22;100228.13;;;23.69;47.87
59063;BME280;44851;45.648;9.004;2022-10-17T13:44:48;100222.84;;;23.75;48.06
59063;BME280;44851;45.648;9.004;2022-10-17T13:47:22;100223.25;;;23.72;47.49
59063;BME280;44851;45.648;9.004;2022-10-17T13:49:49;100229.09;;;23.61;46.38
59063;BME280;44851;45.648;9.004;2022-10-17T13:52:18;100224.50;;;23.76;47.51
59063;BME280;44851;45.648;9.004;2022-10-17T13:54:46;100214.53;;;23.57;47.65
59063;BME280;44851;45.648;9.004;2022-10-17T13:57:29;100215.69;;;23.48;46.26
59063;BME280;44851;45.648;9.004;2022-10-17T14:00:24;100219.03;;;23.28;46.99
59063;BME280;44851;45.648;9.004;2022-10-17T14:02:50;100215.28;;;23.44;46.80
59063;BME280;44851;45.648;9.004;2022-10-17T14:05:19;100217.50;;;23.41;46.87
59063;BME280;44851;45.648;9.004;2022-10-17T14:07:56;100217.25;;;23.35;47.13
59063;BME280;44851;45.648;9.004;2022-10-17T14:10:25;100212.19;;;23.19;47.50
59063;BME280;44851;45.648;9.004;2022-10-17T14:12:52;100216.69;;;23.19;47.18
59063;BME280;44851;45.648;9.004;2022-10-17T14:15:21;100206.66;;;23.42;46.01
59063;BME280;44851;45.648;9.004;2022-10-17T14:17:54;100198.81;;;23.34;46.98
59063;BME280;44851;45.648;9.004;2022-10-17T14:20:21;100203.16;;;23.20;46.53
59063;BME280;44851;45.648;9.004;2022-10-17T14:22:48;100210.53;;;23.18;46.81
59063;BME280;44851;45.648;9.004;2022-10-17T14:25:32;100197.94;;;23.05;46.96
59063;BME280;44851;45.648;9.004;2022-10-17T14:30:46;100200.16;;;23.02;48.22
59063;BME280;44851;45.648;9.004;2022-10-17T14:33:30;100198.59;;;22.86;47.15
59063;BME280;44851;45.648;9.004;2022-10-17T14:36:16;100195.34;;;22.91;46.61
59063;BME280;44851;45.648;9.004;2022-10-17T14:38:50;100194.84;;;22.80;47.27
59063;BME280;44851;45.648;9.004;2022-10-17T14:43:56;100203.31;;;22.91;46.77
59063;BME280;44851;45.648;9.004;2022-10-17T14:46:22;100199.47;;;22.72;47.17
59063;BME280;44851;45.648;9.004;2022-10-17T14:48:52;100200.44;;;22.86;48.00
59063;BME280;44851;45.648;9.004;2022-10-17T14:51:18;100202.19;;;22.78;47.35
59063;BME280;44851;45.648;9.004;2022-10-17T14:56:39;100203.09;;;22.64;50.02
59063;BME280;44851;45.648;9.004;2022-10-17T14:59:05;100207.19;;;22.67;50.57